sensor_id;sensor_type;location;lat;lon;timestamp;temperature;humidity
13052;DHT22;6592;47.484;9.726;2023-03-31T00:01:33;10.90;99.90
13052;DHT22;6592;47.484;9.726;2023-03-31T00:04:03;10.90;99.90
13052;DHT22;6592;47.484;9.726;2023-03-31T00:06:35;11.00;99.90
13052;DHT22;6592;47.484;9.726;2023-03-31T00:09:04;10.90;99.90
13052;DHT22;6592;47.484;9.726;2023-03-31T00:11:35;10.90;99.90
13052;DHT22;6592;47.484;9.726;2023-03-31T00:14:05;10.90;99.90
13052;DHT22;6592;47.484;9.726;2023-03-31T00:16:35;10.90;99.90
13052;DHT22;6592;47.484;9.726;2023-03-31T00:19:05;10.80;99.90
13052;DHT22;6592;47.484;9.726;2023-03-31T00:21:45;10.80;99.90
13052;DHT22;6592;47.484;9.726;2023-03-31T00:24:14;10.80;99.90
13052;DHT22;6592;47.484;9.726;2023-03-31T00:26:44;10.80;99.90
13052;DHT22;6592;47.484;9.726;2023-03-31T00:29:13;10.80;99.90
13052;DHT22;6592;47.484;9.726;2023-03-31T00:31:41;10.80;99.90
13052;DHT22;6592;47.484;9.726;2023-03-31T00:34:12;10.80;99.90
13052;DHT22;6592;47.484;9.726;2023-03-31T00:36:41;10.80;99.90
13052;DHT22;6592;47.484;9.726;2023-03-31T00:39:15;10.80;99.90
13052;DHT22;6592;47.484;9.726;2023-03-31T00:41:44;10.80;99.90
13052;DHT22;6592;47.484;9.726;2023-03-31T00:44:15;10.80;99.90
13052;DHT22;6592;47.484;9.726;2023-03-31T00:46:51;10.80;99.90
13052;DHT22;6592;47.484;9.726;2023-03-31T00:49:27;10.80;99.90
13052;DHT22;6592;47.484;9.726;2023-03-31T00:51:59;10.80;99.90
13052;DHT22;6592;47.484;9.726;2023-03-31T00:54:31;10.80;99.90
13052;DHT22;6592;47.484;9.726;2023-03-31T00:57:04;10.70;99.90
13052;DHT22;6592;47.484;9.726;2023-03-31T00:59:36;10.70;99.90
13052;DHT22;6592;47.484;9.726;2023-03-31T01:02:07;10.70;99.90
13052;DHT22;6592;47.484;9.726;2023-03-31T01:04:40;10.60;99.90
13052;DHT22;6592;47.484;9.726;2023-03-31T01:07:15;10.60;99.90
13052;DHT22;6592;47.484;9.726;2023-03-31T01:09:46;10.60;99.90
13052;DHT22;6592;47.484;9.726;2023-03-31T01:12:16;10.60;99.90
13052;DHT22;6592;47.484;9.726;2023-03-31T01:14:47;10.70;99.90
13052;DHT22;6592;47.484;9.726;2023-03-31T01:17:18;10.70;99.90
13052;DHT22;6592;47.484;9.726;2023-03-31T01:19:52;10.60;99.90
13052;DHT22;6592;47.484;9.726;2023-03-31T01:26:21;10.60;99.90
13052;DHT22;6592;47.484;9.726;2023-03-31T01:28:58;10.50;99.90
13052;DHT22;6592;47.484;9.726;2023-03-31T01:32:00;10.50;99.90
13052;DHT22;6592;47.484;9.726;2023-03-31T01:34:55;10.40;99.90
13052;DHT22;6592;47.484;9.726;2023-03-31T01:37:47;10.40;99.90
13052;DHT22;6592;47.484;9.726;2023-03-31T01:43:31;9.80;99.90
13052;DHT22;6592;47.484;9.726;2023-03-31T01:46:09;10.30;99.90
13052;DHT22;6592;47.484;9.726;2023-03-31T01:48:47;10.30;99.90
13052;DHT22;6592;47.484;9.726;2023-03-31T01:51:21;10.30;99.90
13052;DHT22;6592;47.484;9.726;2023-03-31T01:54:00;10.30;99.90
13052;DHT22;6592;47.484;9.726;2023-03-31T01:56:32;10.30;99.90
13052;DHT22;6592;47.484;9.726;2023-03-31T01:59:08;10.30;99.90
13052;DHT22;6592;47.484;9.726;2023-03-31T02:01:41;10.10;99.90
13052;DHT22;6592;47.484;9.726;2023-03-31T02:04:15;10.30;99.90
13052;DHT22;6592;47.484;9.726;2023-03-31T02:06:49;10.30;99.90
13052;DHT22;6592;47.484;9.726;2023-03-31T02:09:25;10.30;99.90
13052;DHT22;6592;47.484;9.726;2023-03-31T02:11:57;10.40;99.90
13052;DHT22;6592;47.484;9.726;2023-03-31T02:14:29;10.40;99.90
13052;DHT22;6592;47.484;9.726;2023-03-31T02:16:59;10.00;99.90
13052;DHT22;6592;47.484;9.726;2023-03-31T02:19:32;10.50;99.90
13052;DHT22;6592;47.484;9.726;2023-03-31T02:22:03;10.50;99.90
13052;DHT22;6592;47.484;9.726;2023-03-31T02:24:34;10.50;99.90
13052;DHT22;6592;47.484;9.726;2023-03-31T02:27:06;10.50;99.90
13052;DHT22;6592;47.484;9.726;2023-03-31T02:29:38;10.50;99.90
13052;DHT22;6592;47.484;9.726;2023-03-31T02:32:10;10.50;99.90
13052;DHT22;6592;47.484;9.726;2023-03-31T02:34:41;10.50;99.90
13052;DHT22;6592;47.484;9.726;2023-03-31T02:37:10;10.50;99.90
13052;DHT22;6592;47.484;9.726;2023-03-31T02:39:43;10.50;99.90
13052;DHT22;6592;47.484;9.726;2023-03-31T02:42:13;10.50;99.90
13052;DHT22;6592;47.484;9.726;2023-03-31T02:44:44;10.40;99.90
13052;DHT22;6592;47.484;9.726;2023-03-31T02:47:14;10.40;99.90
13052;DHT22;6592;47.484;9.726;2023-03-31T02:49:48;10.50;99.90
13052;DHT22;6592;47.484;9.726;2023-03-31T02:52:41;10.50;99.90
13052;DHT22;6592;47.484;9.726;2023-03-31T02:55:40;9.80;99.90
13052;DHT22;6592;47.484;9.726;2023-03-31T02:58:39;10.60;99.90
13052;DHT22;6592;47.484;9.726;2023-03-31T03:01:35;10.60;99.90
13052;DHT22;6592;47.484;9.726;2023-03-31T03:04:17;10.30;99.90
13052;DHT22;6592;47.484;9.726;2023-03-31T03:06:56;10.60;99.90
13052;DHT22;6592;47.484;9.726;2023-03-31T03:09:38;9.40;99.90
13052;DHT22;6592;47.484;9.726;2023-03-31T03:12:17;10.50;99.90
13052;DHT22;6592;47.484;9.726;2023-03-31T03:14:57;10.50;99.90
13052;DHT22;6592;47.484;9.726;2023-03-31T03:17:32;10.40;99.90
13052;DHT22;6592;47.484;9.726;2023-03-31T03:20:04;10.90;99.90
13052;DHT22;6592;47.484;9.726;2023-03-31T03:22:36;10.30;99.90
13052;DHT22;6592;47.484;9.726;2023-03-31T03:25:06;10.30;99.90
13052;DHT22;6592;47.484;9.726;2023-03-31T03:27:38;10.30;99.90
13052;DHT22;6592;47.484;9.726;2023-03-31T03:30:09;10.30;99.90
13052;DHT22;6592;47.484;9.726;2023-03-31T03:32:40;10.10;99.90
13052;DHT22;6592;47.484;9.726;2023-03-31T03:35:10;9.90;99.90
13052;DHT22;6592;47.484;9.726;2023-03-31T03:37:39;9.80;99.90
13052;DHT22;6592;47.484;9.726;2023-03-31T03:40:09;9.80;99.90
13052;DHT22;6592;47.484;9.726;2023-03-31T03:42:38;9.80;99.90
13052;DHT22;6592;47.484;9.726;2023-03-31T03:45:07;9.80;99.90
13052;DHT22;6592;47.484;9.726;2023-03-31T03:47:36;9.80;99.90
13052;DHT22;6592;47.484;9.726;2023-03-31T03:50:08;9.80;99.90
13052;DHT22;6592;47.484;9.726;2023-03-31T03:52:40;9.80;99.90
13052;DHT22;6592;47.484;9.726;2023-03-31T03:55:09;9.80;99.90
13052;DHT22;6592;47.484;9.726;2023-03-31T03:57:38;9.80;99.90
13052;DHT22;6592;47.484;9.726;2023-03-31T04:00:08;9.70;99.90
13052;DHT22;6592;47.484;9.726;2023-03-31T04:02:39;9.70;99.90
13052;DHT22;6592;47.484;9.726;2023-03-31T04:05:12;9.70;99.90
13052;DHT22;6592;47.484;9.726;2023-03-31T04:07:43;9.70;99.90
13052;DHT22;6592;47.484;9.726;2023-03-31T04:10:12;9.70;99.90
13052;DHT22;6592;47.484;9.726;2023-03-31T04:12:41;9.70;99.90
13052;DHT22;6592;47.484;9.726;2023-03-31T04:15:10;9.80;99.90
13052;DHT22;6592;47.484;9.726;2023-03-31T04:17:39;9.90;99.90
13052;DHT22;6592;47.484;9.726;2023-03-31T04:20:09;9.90;99.90
13052;DHT22;6592;47.484;9.726;2023-03-31T04:22:43;9.90;99.90
13052;DHT22;6592;47.484;9.726;2023-03-31T04:25:13;9.90;99.90
13052;DHT22;6592;47.484;9.726;2023-03-31T04:27:43;9.80;99.90
13052;DHT22;6592;47.484;9.726;2023-03-31T04:30:14;9.80;99.90
13052;DHT22;6592;47.484;9.726;2023-03-31T04:32:50;9.80;99.90
13052;DHT22;6592;47.484;9.726;2023-03-31T04:35:19;9.80;99.90
13052;DHT22;6592;47.484;9.726;2023-03-31T04:37:52;9.70;99.90
13052;DHT22;6592;47.484;9.726;2023-03-31T04:40:25;9.70;99.90
13052;DHT22;6592;47.484;9.726;2023-03-31T04:42:54;9.80;99.90
13052;DHT22;6592;47.484;9.726;2023-03-31T04:45:23;9.60;99.90
13052;DHT22;6592;47.484;9.726;2023-03-31T04:47:52;9.60;99.90
13052;DHT22;6592;47.484;9.726;2023-03-31T04:50:21;9.50;99.90
13052;DHT22;6592;47.484;9.726;2023-03-31T04:52:51;9.50;99.90
13052;DHT22;6592;47.484;9.726;2023-03-31T04:55:19;9.50;99.90
13052;DHT22;6592;47.484;9.726;2023-03-31T04:57:48;9.40;99.90
13052;DHT22;6592;47.484;9.726;2023-03-31T05:00:18;9.60;99.90
13052;DHT22;6592;47.484;9.726;2023-03-31T05:02:47;9.50;99.90
13052;DHT22;6592;47.484;9.726;2023-03-31T05:05:17;9.60;99.90
13052;DHT22;6592;47.484;9.726;2023-03-31T05:07:47;9.60;99.90
13052;DHT22;6592;47.484;9.726;2023-03-31T05:10:18;9.70;99.90
13052;DHT22;6592;47.484;9.726;2023-03-31T05:12:47;9.90;99.90
13052;DHT22;6592;47.484;9.726;2023-03-31T05:15:16;9.80;99.90
13052;DHT22;6592;47.484;9.726;2023-03-31T05:17:45;9.90;99.90
13052;DHT22;6592;47.484;9.726;2023-03-31T05:20:13;9.90;99.90
13052;DHT22;6592;47.484;9.726;2023-03-31T05:22:42;8.80;99.90
13052;DHT22;6592;47.484;9.726;2023-03-31T05:25:12;9.90;99.90
13052;DHT22;6592;47.484;9.726;2023-03-31T05:27:46;9.90;99.90
13052;DHT22;6592;47.484;9.726;2023-03-31T05:30:16;9.90;99.90
13052;DHT22;6592;47.484;9.726;2023-03-31T05:32:46;9.90;99.90
13052;DHT22;6592;47.484;9.726;2023-03-31T05:35:15;9.90;99.90
13052;DHT22;6592;47.484;9.726;2023-03-31T05:37:44;10.20;99.90
13052;DHT22;6592;47.484;9.726;2023-03-31T05:40:12;10.00;99.90
13052;DHT22;6592;47.484;9.726;2023-03-31T05:42:41;10.00;99.90
13052;DHT22;6592;47.484;9.726;2023-03-31T05:45:11;10.10;99.90
13052;DHT22;6592;47.484;9.726;2023-03-31T05:47:40;10.20;99.90
13052;DHT22;6592;47.484;9.726;2023-03-31T05:50:09;10.10;99.90
13052;DHT22;6592;47.484;9.726;2023-03-31T05:52:40;10.20;99.90
13052;DHT22;6592;47.484;9.726;2023-03-31T05:55:09;10.30;99.90
13052;DHT22;6592;47.484;9.726;2023-03-31T05:57:37;10.20;99.90
13052;DHT22;6592;47.484;9.726;2023-03-31T06:00:07;10.40;99.90
13052;DHT22;6592;47.484;9.726;2023-03-31T06:02:38;10.40;99.90
13052;DHT22;6592;47.484;9.726;2023-03-31T06:05:08;10.50;99.90
13052;DHT22;6592;47.484;9.726;2023-03-31T06:07:36;10.60;99.90
13052;DHT22;6592;47.484;9.726;2023-03-31T06:10:06;10.60;99.90
13052;DHT22;6592;47.484;9.726;2023-03-31T06:12:36;10.60;99.90
13052;DHT22;6592;47.484;9.726;2023-03-31T06:15:06;10.60;99.90
13052;DHT22;6592;47.484;9.726;2023-03-31T06:17:34;10.60;99.90
13052;DHT22;6592;47.484;9.726;2023-03-31T06:20:07;10.60;99.90
13052;DHT22;6592;47.484;9.726;2023-03-31T06:22:52;10.70;99.90
13052;DHT22;6592;47.484;9.726;2023-03-31T06:25:21;10.70;99.90
13052;DHT22;6592;47.484;9.726;2023-03-31T06:27:49;10.80;99.90
13052;DHT22;6592;47.484;9.726;2023-03-31T06:30:18;10.80;99.90
13052;DHT22;6592;47.484;9.726;2023-03-31T06:32:46;10.80;99.90
13052;DHT22;6592;47.484;9.726;2023-03-31T06:35:16;10.80;99.90
13052;DHT22;6592;47.484;9.726;2023-03-31T06:37:44;10.90;99.90
13052;DHT22;6592;47.484;9.726;2023-03-31T06:40:13;11.00;99.90
13052;DHT22;6592;47.484;9.726;2023-03-31T06:42:41;11.00;99.90
13052;DHT22;6592;47.484;9.726;2023-03-31T06:45:10;11.10;99.90
13052;DHT22;6592;47.484;9.726;2023-03-31T06:47:38;11.10;99.90
13052;DHT22;6592;47.484;9.726;2023-03-31T06:50:08;11.20;99.90
13052;DHT22;6592;47.484;9.726;2023-03-31T06:52:38;11.10;99.90
13052;DHT22;6592;47.484;9.726;2023-03-31T06:55:08;11.10;99.90
13052;DHT22;6592;47.484;9.726;2023-03-31T06:57:39;11.20;99.90
13052;DHT22;6592;47.484;9.726;2023-03-31T07:00:08;11.20;99.90
13052;DHT22;6592;47.484;9.726;2023-03-31T07:02:37;11.30;99.90
13052;DHT22;6592;47.484;9.726;2023-03-31T07:05:06;11.40;99.90
13052;DHT22;6592;47.484;9.726;2023-03-31T07:07:34;11.50;99.90
13052;DHT22;6592;47.484;9.726;2023-03-31T07:10:05;11.60;99.90
13052;DHT22;6592;47.484;9.726;2023-03-31T07:12:33;11.70;99.90
13052;DHT22;6592;47.484;9.726;2023-03-31T07:15:02;11.70;99.90
13052;DHT22;6592;47.484;9.726;2023-03-31T07:17:31;11.70;99.90
13052;DHT22;6592;47.484;9.726;2023-03-31T07:20:00;11.80;99.90
13052;DHT22;6592;47.484;9.726;2023-03-31T07:22:30;11.90;99.90
13052;DHT22;6592;47.484;9.726;2023-03-31T07:24:58;12.10;99.90
13052;DHT22;6592;47.484;9.726;2023-03-31T07:27:29;12.30;99.90
13052;DHT22;6592;47.484;9.726;2023-03-31T07:29:58;12.40;99.90
13052;DHT22;6592;47.484;9.726;2023-03-31T07:32:26;12.40;99.90
13052;DHT22;6592;47.484;9.726;2023-03-31T07:34:55;12.50;99.90
13052;DHT22;6592;47.484;9.726;2023-03-31T07:37:26;12.50;99.90
13052;DHT22;6592;47.484;9.726;2023-03-31T07:39:54;12.60;99.90
13052;DHT22;6592;47.484;9.726;2023-03-31T07:42:23;12.50;99.90
13052;DHT22;6592;47.484;9.726;2023-03-31T07:44:53;12.20;99.90
13052;DHT22;6592;47.484;9.726;2023-03-31T07:47:21;12.40;99.90
13052;DHT22;6592;47.484;9.726;2023-03-31T07:49:50;11.40;99.90
13052;DHT22;6592;47.484;9.726;2023-03-31T07:52:18;12.70;99.90
13052;DHT22;6592;47.484;9.726;2023-03-31T07:54:47;13.10;99.90
13052;DHT22;6592;47.484;9.726;2023-03-31T07:57:16;13.20;99.90
13052;DHT22;6592;47.484;9.726;2023-03-31T07:59:49;13.30;99.90
13052;DHT22;6592;47.484;9.726;2023-03-31T08:02:19;13.30;99.90
13052;DHT22;6592;47.484;9.726;2023-03-31T08:04:52;13.30;99.90
13052;DHT22;6592;47.484;9.726;2023-03-31T08:07:21;13.20;99.90
13052;DHT22;6592;47.484;9.726;2023-03-31T08:09:49;13.30;99.90
13052;DHT22;6592;47.484;9.726;2023-03-31T08:12:17;13.20;99.90
13052;DHT22;6592;47.484;9.726;2023-03-31T08:14:46;13.30;99.90
13052;DHT22;6592;47.484;9.726;2023-03-31T08:17:14;13.10;99.90
13052;DHT22;6592;47.484;9.726;2023-03-31T08:19:44;13.40;99.90
13052;DHT22;6592;47.484;9.726;2023-03-31T08:22:12;13.50;99.90
13052;DHT22;6592;47.484;9.726;2023-03-31T08:24:41;13.50;99.90
13052;DHT22;6592;47.484;9.726;2023-03-31T08:27:09;13.50;99.90
13052;DHT22;6592;47.484;9.726;2023-03-31T08:29:38;13.50;99.90
13052;DHT22;6592;47.484;9.726;2023-03-31T08:32:07;13.40;99.90
13052;DHT22;6592;47.484;9.726;2023-03-31T08:34:36;13.40;99.90
13052;DHT22;6592;47.484;9.726;2023-03-31T08:37:09;13.40;99.90
13052;DHT22;6592;47.484;9.726;2023-03-31T08:39:38;13.40;99.90
13052;DHT22;6592;47.484;9.726;2023-03-31T08:42:10;13.40;99.90
13052;DHT22;6592;47.484;9.726;2023-03-31T08:44:43;13.40;99.90
13052;DHT22;6592;47.484;9.726;2023-03-31T08:47:17;13.30;99.90
13052;DHT22;6592;47.484;9.726;2023-03-31T08:49:50;13.30;99.90
13052;DHT22;6592;47.484;9.726;2023-03-31T08:52:26;13.20;99.90
13052;DHT22;6592;47.484;9.726;2023-03-31T08:54:58;13.10;99.90
13052;DHT22;6592;47.484;9.726;2023-03-31T08:57:32;13.10;99.90
13052;DHT22;6592;47.484;9.726;2023-03-31T09:00:03;13.10;99.90
13052;DHT22;6592;47.484;9.726;2023-03-31T09:02:39;13.10;99.90
13052;DHT22;6592;47.484;9.726;2023-03-31T09:08:34;13.40;99.90
13052;DHT22;6592;47.484;9.726;2023-03-31T09:11:09;13.30;99.90
13052;DHT22;6592;47.484;9.726;2023-03-31T09:13:55;13.40;99.90
13052;DHT22;6592;47.484;9.726;2023-03-31T09:16:26;13.40;99.90
13052;DHT22;6592;47.484;9.726;2023-03-31T09:18:59;13.30;99.90
13052;DHT22;6592;47.484;9.726;2023-03-31T09:21:30;13.20;99.90
13052;DHT22;6592;47.484;9.726;2023-03-31T09:24:05;13.20;99.90
13052;DHT22;6592;47.484;9.726;2023-03-31T09:26:38;13.30;99.90
13052;DHT22;6592;47.484;9.726;2023-03-31T09:29:18;13.40;99.90
13052;DHT22;6592;47.484;9.726;2023-03-31T09:31:50;13.60;99.90
13052;DHT22;6592;47.484;9.726;2023-03-31T09:34:23;13.70;99.90
13052;DHT22;6592;47.484;9.726;2023-03-31T09:36:54;13.60;99.90
13052;DHT22;6592;47.484;9.726;2023-03-31T09:39:24;13.70;99.90
13052;DHT22;6592;47.484;9.726;2023-03-31T09:41:55;13.80;99.90
13052;DHT22;6592;47.484;9.726;2023-03-31T09:44:30;13.90;99.90
13052;DHT22;6592;47.484;9.726;2023-03-31T09:47:03;14.10;99.90
13052;DHT22;6592;47.484;9.726;2023-03-31T09:49:38;14.40;99.90
13052;DHT22;6592;47.484;9.726;2023-03-31T09:52:26;14.50;99.90
13052;DHT22;6592;47.484;9.726;2023-03-31T09:55:00;14.60;99.90
13052;DHT22;6592;47.484;9.726;2023-03-31T09:57:31;14.60;99.90
13052;DHT22;6592;47.484;9.726;2023-03-31T10:00:12;14.50;99.90
13052;DHT22;6592;47.484;9.726;2023-03-31T10:02:44;14.60;99.90
13052;DHT22;6592;47.484;9.726;2023-03-31T10:05:27;14.60;99.90
13052;DHT22;6592;47.484;9.726;2023-03-31T10:08:16;14.50;99.90
13052;DHT22;6592;47.484;9.726;2023-03-31T10:10:50;14.40;99.90
13052;DHT22;6592;47.484;9.726;2023-03-31T10:13:22;14.20;99.90
13052;DHT22;6592;47.484;9.726;2023-03-31T10:15:54;14.00;99.90
13052;DHT22;6592;47.484;9.726;2023-03-31T10:18:32;13.90;99.90
13052;DHT22;6592;47.484;9.726;2023-03-31T10:21:03;13.70;99.90
13052;DHT22;6592;47.484;9.726;2023-03-31T10:23:34;13.50;99.90
13052;DHT22;6592;47.484;9.726;2023-03-31T10:26:05;13.40;99.90
13052;DHT22;6592;47.484;9.726;2023-03-31T10:28:35;13.50;99.90
13052;DHT22;6592;47.484;9.726;2023-03-31T10:31:04;13.60;99.90
13052;DHT22;6592;47.484;9.726;2023-03-31T10:33:44;13.50;99.90
13052;DHT22;6592;47.484;9.726;2023-03-31T10:36:20;13.50;99.90
13052;DHT22;6592;47.484;9.726;2023-03-31T10:38:51;13.30;99.90
13052;DHT22;6592;47.484;9.726;2023-03-31T10:41:22;13.30;99.90
13052;DHT22;6592;47.484;9.726;2023-03-31T10:43:53;13.50;99.90
13052;DHT22;6592;47.484;9.726;2023-03-31T10:46:39;13.70;99.90
13052;DHT22;6592;47.484;9.726;2023-03-31T10:49:15;13.90;99.90
13052;DHT22;6592;47.484;9.726;2023-03-31T10:51:52;13.90;99.90
13052;DHT22;6592;47.484;9.726;2023-03-31T10:54:20;14.00;99.90
13052;DHT22;6592;47.484;9.726;2023-03-31T10:56:52;14.10;99.90
13052;DHT22;6592;47.484;9.726;2023-03-31T10:59:38;14.10;99.90
13052;DHT22;6592;47.484;9.726;2023-03-31T11:02:22;14.10;99.90
13052;DHT22;6592;47.484;9.726;2023-03-31T11:05:04;14.10;99.90
13052;DHT22;6592;47.484;9.726;2023-03-31T11:07:48;14.20;99.90
13052;DHT22;6592;47.484;9.726;2023-03-31T11:10:29;14.80;99.90
13052;DHT22;6592;47.484;9.726;2023-03-31T11:13:06;15.70;99.90
13052;DHT22;6592;47.484;9.726;2023-03-31T11:15:39;16.30;99.90
13052;DHT22;6592;47.484;9.726;2023-03-31T11:18:38;17.00;99.90
13052;DHT22;6592;47.484;9.726;2023-03-31T11:21:17;17.40;99.90
13052;DHT22;6592;47.484;9.726;2023-03-31T11:23:54;17.90;99.90
13052;DHT22;6592;47.484;9.726;2023-03-31T11:26:30;18.70;99.90
13052;DHT22;6592;47.484;9.726;2023-03-31T11:29:10;19.40;99.90
13052;DHT22;6592;47.484;9.726;2023-03-31T11:31:49;18.90;99.90
13052;DHT22;6592;47.484;9.726;2023-03-31T11:34:57;18.10;99.90
13052;DHT22;6592;47.484;9.726;2023-03-31T11:37:46;16.90;99.90
13052;DHT22;6592;47.484;9.726;2023-03-31T11:40:31;16.50;99.90
13052;DHT22;6592;47.484;9.726;2023-03-31T11:43:06;16.40;99.90
13052;DHT22;6592;47.484;9.726;2023-03-31T11:45:43;16.20;99.90
13052;DHT22;6592;47.484;9.726;2023-03-31T11:48:17;16.10;99.90
13052;DHT22;6592;47.484;9.726;2023-03-31T11:50:54;15.90;99.90
13052;DHT22;6592;47.484;9.726;2023-03-31T11:53:27;16.00;99.90
13052;DHT22;6592;47.484;9.726;2023-03-31T11:55:57;16.20;99.90
13052;DHT22;6592;47.484;9.726;2023-03-31T11:58:34;16.00;99.90
13052;DHT22;6592;47.484;9.726;2023-03-31T12:01:12;15.70;99.90
13052;DHT22;6592;47.484;9.726;2023-03-31T12:03:50;15.10;99.90
13052;DHT22;6592;47.484;9.726;2023-03-31T12:06:21;14.70;99.90
13052;DHT22;6592;47.484;9.726;2023-03-31T12:09:02;14.40;99.90
13052;DHT22;6592;47.484;9.726;2023-03-31T12:11:39;14.20;99.90
13052;DHT22;6592;47.484;9.726;2023-03-31T12:14:24;14.20;99.90
13052;DHT22;6592;47.484;9.726;2023-03-31T12:17:01;14.00;99.90
13052;DHT22;6592;47.484;9.726;2023-03-31T12:19:38;14.00;99.90
13052;DHT22;6592;47.484;9.726;2023-03-31T12:22:12;13.90;99.90
13052;DHT22;6592;47.484;9.726;2023-03-31T12:24:42;13.80;99.90
13052;DHT22;6592;47.484;9.726;2023-03-31T12:27:16;13.70;99.90
13052;DHT22;6592;47.484;9.726;2023-03-31T12:29:49;13.70;99.90
13052;DHT22;6592;47.484;9.726;2023-03-31T12:32:24;13.70;99.90
13052;DHT22;6592;47.484;9.726;2023-03-31T12:34:57;13.70;99.90
13052;DHT22;6592;47.484;9.726;2023-03-31T12:40:39;13.80;99.90
13052;DHT22;6592;47.484;9.726;2023-03-31T12:46:47;14.70;99.90
13052;DHT22;6592;47.484;9.726;2023-03-31T12:49:31;14.80;99.90
13052;DHT22;6592;47.484;9.726;2023-03-31T12:52:05;14.70;99.90
13052;DHT22;6592;47.484;9.726;2023-03-31T12:57:20;14.60;99.90
13052;DHT22;6592;47.484;9.726;2023-03-31T13:00:24;14.30;99.90
13052;DHT22;6592;47.484;9.726;2023-03-31T13:06:02;14.00;99.90
13052;DHT22;6592;47.484;9.726;2023-03-31T13:09:00;13.90;99.90
13052;DHT22;6592;47.484;9.726;2023-03-31T13:11:37;13.70;99.90
13052;DHT22;6592;47.484;9.726;2023-03-31T13:14:12;13.60;99.90
13052;DHT22;6592;47.484;9.726;2023-03-31T13:16:42;13.40;99.90
13052;DHT22;6592;47.484;9.726;2023-03-31T13:19:23;13.10;99.90
13052;DHT22;6592;47.484;9.726;2023-03-31T13:21:56;12.80;99.90
13052;DHT22;6592;47.484;9.726;2023-03-31T13:24:26;12.70;99.90
13052;DHT22;6592;47.484;9.726;2023-03-31T13:26:56;12.50;99.90
13052;DHT22;6592;47.484;9.726;2023-03-31T13:29:39;12.40;99.90
13052;DHT22;6592;47.484;9.726;2023-03-31T13:32:22;12.60;99.90
13052;DHT22;6592;47.484;9.726;2023-03-31T13:34:58;12.90;99.90
13052;DHT22;6592;47.484;9.726;2023-03-31T13:37:48;13.40;99.90
13052;DHT22;6592;47.484;9.726;2023-03-31T13:40:42;14.30;99.90
13052;DHT22;6592;47.484;9.726;2023-03-31T13:43:31;15.20;99.90
13052;DHT22;6592;47.484;9.726;2023-03-31T13:46:41;16.10;99.90
13052;DHT22;6592;47.484;9.726;2023-03-31T13:49:32;16.60;99.90
13052;DHT22;6592;47.484;9.726;2023-03-31T13:52:08;16.90;99.90
13052;DHT22;6592;47.484;9.726;2023-03-31T14:01:05;17.70;99.90
13052;DHT22;6592;47.484;9.726;2023-03-31T14:03:51;17.80;99.90
13052;DHT22;6592;47.484;9.726;2023-03-31T14:06:29;17.80;99.90
13052;DHT22;6592;47.484;9.726;2023-03-31T14:09:04;18.00;99.90
13052;DHT22;6592;47.484;9.726;2023-03-31T14:11:33;18.10;99.90
13052;DHT22;6592;47.484;9.726;2023-03-31T14:14:03;18.20;99.90
13052;DHT22;6592;47.484;9.726;2023-03-31T14:16:36;18.10;99.90
13052;DHT22;6592;47.484;9.726;2023-03-31T14:19:36;18.00;99.90
13052;DHT22;6592;47.484;9.726;2023-03-31T14:22:13;17.80;99.90
13052;DHT22;6592;47.484;9.726;2023-03-31T14:24:49;17.50;99.90
13052;DHT22;6592;47.484;9.726;2023-03-31T14:27:29;17.10;99.90
13052;DHT22;6592;47.484;9.726;2023-03-31T14:30:13;16.60;99.90
13052;DHT22;6592;47.484;9.726;2023-03-31T14:32:51;15.90;99.90
13052;DHT22;6592;47.484;9.726;2023-03-31T14:35:29;15.70;99.90
13052;DHT22;6592;47.484;9.726;2023-03-31T14:38:00;15.00;99.90
13052;DHT22;6592;47.484;9.726;2023-03-31T14:40:30;14.50;99.90
13052;DHT22;6592;47.484;9.726;2023-03-31T14:42:59;14.00;99.90
13052;DHT22;6592;47.484;9.726;2023-03-31T14:45:30;13.60;99.90
13052;DHT22;6592;47.484;9.726;2023-03-31T14:48:10;13.10;99.90
13052;DHT22;6592;47.484;9.726;2023-03-31T14:50:41;13.00;99.90
13052;DHT22;6592;47.484;9.726;2023-03-31T14:53:13;13.20;99.90
13052;DHT22;6592;47.484;9.726;2023-03-31T14:55:43;13.10;99.90
13052;DHT22;6592;47.484;9.726;2023-03-31T14:58:27;12.80;99.90
13052;DHT22;6592;47.484;9.726;2023-03-31T15:00:57;12.50;99.90
13052;DHT22;6592;47.484;9.726;2023-03-31T15:03:28;12.50;99.90
13052;DHT22;6592;47.484;9.726;2023-03-31T15:05:58;12.40;99.90
13052;DHT22;6592;47.484;9.726;2023-03-31T15:08:28;12.50;99.90
13052;DHT22;6592;47.484;9.726;2023-03-31T15:11:00;12.90;99.90
13052;DHT22;6592;47.484;9.726;2023-03-31T15:13:41;13.70;99.90
13052;DHT22;6592;47.484;9.726;2023-03-31T15:16:32;14.50;99.90
13052;DHT22;6592;47.484;9.726;2023-03-31T15:19:06;15.20;99.90
13052;DHT22;6592;47.484;9.726;2023-03-31T15:21:38;15.60;99.90
13052;DHT22;6592;47.484;9.726;2023-03-31T15:24:09;15.80;99.90
13052;DHT22;6592;47.484;9.726;2023-03-31T15:26:39;15.10;99.90
13052;DHT22;6592;47.484;9.726;2023-03-31T15:29:11;15.90;99.90
13052;DHT22;6592;47.484;9.726;2023-03-31T15:31:42;15.90;99.90
13052;DHT22;6592;47.484;9.726;2023-03-31T15:34:20;16.00;99.90
13052;DHT22;6592;47.484;9.726;2023-03-31T15:36:53;16.20;99.90
13052;DHT22;6592;47.484;9.726;2023-03-31T15:39:23;16.30;99.90
13052;DHT22;6592;47.484;9.726;2023-03-31T15:41:53;16.10;99.90
13052;DHT22;6592;47.484;9.726;2023-03-31T15:44:35;15.90;99.90
13052;DHT22;6592;47.484;9.726;2023-03-31T15:47:23;15.70;99.90
13052;DHT22;6592;47.484;9.726;2023-03-31T15:49:56;15.40;99.90
13052;DHT22;6592;47.484;9.726;2023-03-31T15:52:28;15.20;99.90
13052;DHT22;6592;47.484;9.726;2023-03-31T15:54:59;15.00;99.90
13052;DHT22;6592;47.484;9.726;2023-03-31T15:57:33;14.80;99.90
13052;DHT22;6592;47.484;9.726;2023-03-31T16:00:03;14.70;99.90
13052;DHT22;6592;47.484;9.726;2023-03-31T16:02:38;14.60;99.90
13052;DHT22;6592;47.484;9.726;2023-03-31T16:05:23;14.10;99.90
13052;DHT22;6592;47.484;9.726;2023-03-31T16:08:13;13.50;99.90
13052;DHT22;6592;47.484;9.726;2023-03-31T16:10:43;12.80;99.90
13052;DHT22;6592;47.484;9.726;2023-03-31T16:13:17;12.40;99.90
13052;DHT22;6592;47.484;9.726;2023-03-31T16:15:52;12.00;99.90
13052;DHT22;6592;47.484;9.726;2023-03-31T16:18:26;11.50;99.90
13052;DHT22;6592;47.484;9.726;2023-03-31T16:20:58;11.20;99.90
13052;DHT22;6592;47.484;9.726;2023-03-31T16:23:30;11.10;99.90
13052;DHT22;6592;47.484;9.726;2023-03-31T16:25:59;11.00;99.90
13052;DHT22;6592;47.484;9.726;2023-03-31T16:28:30;10.90;99.90
13052;DHT22;6592;47.484;9.726;2023-03-31T16:31:00;10.80;99.90
13052;DHT22;6592;47.484;9.726;2023-03-31T16:33:29;10.70;99.90
13052;DHT22;6592;47.484;9.726;2023-03-31T16:36:01;10.80;99.90
13052;DHT22;6592;47.484;9.726;2023-03-31T16:38:30;10.90;99.90
13052;DHT22;6592;47.484;9.726;2023-03-31T16:40:58;10.90;99.90
13052;DHT22;6592;47.484;9.726;2023-03-31T16:43:28;10.80;99.90
13052;DHT22;6592;47.484;9.726;2023-03-31T16:45:58;10.90;99.90
13052;DHT22;6592;47.484;9.726;2023-03-31T16:48:28;10.80;99.90
13052;DHT22;6592;47.484;9.726;2023-03-31T16:50:59;10.90;99.90
13052;DHT22;6592;47.484;9.726;2023-03-31T16:53:30;11.00;99.90
13052;DHT22;6592;47.484;9.726;2023-03-31T16:55:59;11.10;99.90
13052;DHT22;6592;47.484;9.726;2023-03-31T16:58:29;11.10;99.90